sensor_id;sensor_type;location;lat;lon;timestamp;pressure;altitude;pressure_sealevel;temperature;humidity
66560;BME280;53413;49.878;8.142;2022-08-11T00:00:38;100456.50;;;19.40;45.46
66560;BME280;53413;49.878;8.142;2022-08-11T00:03:07;100450.66;;;19.34;45.33
66560;BME280;53413;49.878;8.142;2022-08-11T00:05:45;100463.28;;;19.31;45.33
66560;BME280;53413;49.878;8.142;2022-08-11T00:08:21;100468.06;;;19.26;47.20
66560;BME280;53413;49.878;8.142;2022-08-11T00:10:52;100459.75;;;19.17;46.15
66560;BME280;53413;49.878;8.142;2022-08-11T00:13:18;100464.31;;;19.15;46.73
66560;BME280;53413;49.878;8.142;2022-08-11T00:15:44;100463.47;;;19.15;46.09
66560;BME280;53413;49.878;8.142;2022-08-11T00:18:11;100463.69;;;19.12;46.69
66560;BME280;53413;49.878;8.142;2022-08-11T00:20:39;100465.59;;;19.10;47.06
66560;BME280;53413;49.878;8.142;2022-08-11T00:23:15;100464.94;;;19.06;47.50
66560;BME280;53413;49.878;8.142;2022-08-11T00:25:44;100456.34;;;19.02;47.07
66560;BME280;53413;49.878;8.142;2022-08-11T00:28:31;100457.69;;;18.95;47.00
66560;BME280;53413;49.878;8.142;2022-08-11T00:31:02;100463.38;;;18.89;47.17
66560;BME280;53413;49.878;8.142;2022-08-11T00:33:42;100465.41;;;18.85;48.27
66560;BME280;53413;49.878;8.142;2022-08-11T00:36:10;100464.00;;;18.80;48.41
66560;BME280;53413;49.878;8.142;2022-08-11T00:38:39;100465.13;;;18.75;48.74
66560;BME280;53413;49.878;8.142;2022-08-11T00:44:11;100465.09;;;18.63;47.32
66560;BME280;53413;49.878;8.142;2022-08-11T00:47:41;100462.53;;;18.61;47.96
66560;BME280;53413;49.878;8.142;2022-08-11T01:44:20;100470.91;;;17.53;50.27
66560;BME280;53413;49.878;8.142;2022-08-11T01:47:38;100472.72;;;17.53;50.68
66560;BME280;53413;49.878;8.142;2022-08-11T01:58:59;100475.38;;;17.53;50.83
66560;BME280;53413;49.878;8.142;2022-08-11T02:13:00;100481.53;;;17.68;50.80
66560;BME280;53413;49.878;8.142;2022-08-11T02:15:38;100478.28;;;17.63;50.64
66560;BME280;53413;49.878;8.142;2022-08-11T02:18:20;100472.25;;;17.61;50.68
66560;BME280;53413;49.878;8.142;2022-08-11T02:20:54;100475.91;;;17.58;50.40
66560;BME280;53413;49.878;8.142;2022-08-11T02:23:52;100476.78;;;17.59;51.24
66560;BME280;53413;49.878;8.142;2022-08-11T02:31:39;100482.44;;;17.52;51.18
66560;BME280;53413;49.878;8.142;2022-08-11T02:37:15;100473.44;;;17.41;52.25
66560;BME280;53413;49.878;8.142;2022-08-11T02:50:20;100472.31;;;17.14;52.09
66560;BME280;53413;49.878;8.142;2022-08-11T02:53:08;100470.03;;;17.08;53.00
66560;BME280;53413;49.878;8.142;2022-08-11T02:55:52;100472.19;;;17.01;52.80
66560;BME280;53413;49.878;8.142;2022-08-11T02:58:25;100470.31;;;17.03;52.75
66560;BME280;53413;49.878;8.142;2022-08-11T03:01:02;100472.34;;;16.98;52.36
66560;BME280;53413;49.878;8.142;2022-08-11T03:03:52;100476.72;;;16.99;52.29
66560;BME280;53413;49.878;8.142;2022-08-11T03:06:35;100471.53;;;16.98;52.24
66560;BME280;53413;49.878;8.142;2022-08-11T03:09:18;100477.88;;;16.93;51.75
66560;BME280;53413;49.878;8.142;2022-08-11T03:15:20;100474.75;;;16.87;52.46
66560;BME280;53413;49.878;8.142;2022-08-11T03:18:27;100485.31;;;16.87;52.25
66560;BME280;53413;49.878;8.142;2022-08-11T03:29:39;100476.47;;;16.72;53.68
66560;BME280;53413;49.878;8.142;2022-08-11T03:32:25;100478.72;;;16.64;53.56
66560;BME280;53413;49.878;8.142;2022-08-11T03:34:53;100475.47;;;16.58;53.54
66560;BME280;53413;49.878;8.142;2022-08-11T04:08:36;100476.03;;;16.31;53.52
66560;BME280;53413;49.878;8.142;2022-08-11T04:26:50;100476.97;;;16.30;53.88
66560;BME280;53413;49.878;8.142;2022-08-11T04:56:27;100485.53;;;17.00;53.12
66560;BME280;53413;49.878;8.142;2022-08-11T05:13:29;100482.66;;;17.64;53.31
66560;BME280;53413;49.878;8.142;2022-08-11T05:16:26;100481.91;;;17.76;51.68
66560;BME280;53413;49.878;8.142;2022-08-11T05:19:16;100484.38;;;17.94;51.60
66560;BME280;53413;49.878;8.142;2022-08-11T05:22:02;100488.56;;;18.12;51.62
66560;BME280;53413;49.878;8.142;2022-08-11T05:24:55;100484.59;;;18.34;51.17
66560;BME280;53413;49.878;8.142;2022-08-11T05:27:50;100481.69;;;18.52;51.57
66560;BME280;53413;49.878;8.142;2022-08-11T05:30:41;100490.16;;;18.71;50.06
66560;BME280;53413;49.878;8.142;2022-08-11T05:33:44;100492.41;;;19.19;48.50
66560;BME280;53413;49.878;8.142;2022-08-11T05:36:49;100479.69;;;19.63;47.41
66560;BME280;53413;49.878;8.142;2022-08-11T05:39:22;100489.28;;;20.05;46.69
66560;BME280;53413;49.878;8.142;2022-08-11T05:42:07;100493.25;;;20.36;45.86
66560;BME280;53413;49.878;8.142;2022-08-11T05:44:54;100493.59;;;20.69;44.78
66560;BME280;53413;49.878;8.142;2022-08-11T05:47:41;100495.63;;;21.02;44.37
66560;BME280;53413;49.878;8.142;2022-08-11T05:50:26;100492.91;;;21.27;43.16
66560;BME280;53413;49.878;8.142;2022-08-11T05:53:12;100492.97;;;21.49;42.73
66560;BME280;53413;49.878;8.142;2022-08-11T05:55:57;100498.16;;;21.75;42.19
66560;BME280;53413;49.878;8.142;2022-08-11T05:58:54;100501.44;;;22.02;41.30
66560;BME280;53413;49.878;8.142;2022-08-11T06:01:24;100502.03;;;22.28;41.57
66560;BME280;53413;49.878;8.142;2022-08-11T06:03:52;100506.41;;;22.52;41.11
66560;BME280;53413;49.878;8.142;2022-08-11T06:06:38;100511.81;;;22.84;39.99
66560;BME280;53413;49.878;8.142;2022-08-11T06:09:07;100506.56;;;24.82;36.94
66560;BME280;53413;49.878;8.142;2022-08-11T06:11:38;100509.72;;;28.37;31.15
66560;BME280;53413;49.878;8.142;2022-08-11T06:14:05;100503.94;;;32.81;25.41
66560;BME280;53413;49.878;8.142;2022-08-11T06:16:31;100523.66;;;35.75;22.56
66560;BME280;53413;49.878;8.142;2022-08-11T06:18:57;100524.56;;;37.74;20.17
66560;BME280;53413;49.878;8.142;2022-08-11T06:21:24;100534.31;;;38.45;18.84
66560;BME280;53413;49.878;8.142;2022-08-11T06:23:51;100535.53;;;38.49;18.33
66560;BME280;53413;49.878;8.142;2022-08-11T06:26:17;100530.78;;;38.87;18.24
66560;BME280;53413;49.878;8.142;2022-08-11T06:28:44;100531.66;;;40.47;17.35
66560;BME280;53413;49.878;8.142;2022-08-11T06:31:18;100528.00;;;41.73;16.45
66560;BME280;53413;49.878;8.142;2022-08-11T06:33:53;100525.44;;;42.60;15.68
66560;BME280;53413;49.878;8.142;2022-08-11T06:39:28;100521.53;;;42.28;15.64
66560;BME280;53413;49.878;8.142;2022-08-11T06:42:13;100522.16;;;43.23;14.80
66560;BME280;53413;49.878;8.142;2022-08-11T06:44:56;100525.84;;;43.34;14.59
66560;BME280;53413;49.878;8.142;2022-08-11T06:47:26;100531.66;;;43.43;14.10
66560;BME280;53413;49.878;8.142;2022-08-11T06:49:54;100523.47;;;43.15;14.25
66560;BME280;53413;49.878;8.142;2022-08-11T06:52:40;100524.38;;;44.33;14.03
66560;BME280;53413;49.878;8.142;2022-08-11T06:55:14;100525.78;;;44.40;13.55
66560;BME280;53413;49.878;8.142;2022-08-11T06:58:18;100526.09;;;44.44;13.73
66560;BME280;53413;49.878;8.142;2022-08-11T07:01:07;100525.78;;;44.40;13.66
66560;BME280;53413;49.878;8.142;2022-08-11T07:03:41;100525.28;;;45.05;13.27
66560;BME280;53413;49.878;8.142;2022-08-11T07:06:34;100531.13;;;44.99;13.43
66560;BME280;53413;49.878;8.142;2022-08-11T07:12:38;100504.50;;;46.20;12.55
66560;BME280;53413;49.878;8.142;2022-08-11T07:15:33;100523.34;;;46.98;11.95
66560;BME280;53413;49.878;8.142;2022-08-11T07:18:07;100518.75;;;46.83;12.17
66560;BME280;53413;49.878;8.142;2022-08-11T07:20:54;100517.38;;;47.44;11.78
66560;BME280;53413;49.878;8.142;2022-08-11T07:24:03;100518.09;;;47.55;11.90
66560;BME280;53413;49.878;8.142;2022-08-11T07:26:53;100513.56;;;47.84;11.58
66560;BME280;53413;49.878;8.142;2022-08-11T07:29:45;100507.97;;;46.81;12.13
66560;BME280;53413;49.878;8.142;2022-08-11T07:32:49;100506.47;;;46.60;12.55
66560;BME280;53413;49.878;8.142;2022-08-11T07:35:17;100506.06;;;46.77;12.19
66560;BME280;53413;49.878;8.142;2022-08-11T07:57:48;100505.31;;;48.55;11.27
66560;BME280;53413;49.878;8.142;2022-08-11T08:00:41;100499.00;;;49.02;10.94
66560;BME280;53413;49.878;8.142;2022-08-11T08:03:28;100501.16;;;48.00;11.43
66560;BME280;53413;49.878;8.142;2022-08-11T08:06:14;100494.06;;;46.86;12.33
66560;BME280;53413;49.878;8.142;2022-08-11T08:08:58;100500.84;;;48.40;11.53
66560;BME280;53413;49.878;8.142;2022-08-11T08:11:43;100488.38;;;47.99;11.87
66560;BME280;53413;49.878;8.142;2022-08-11T08:14:33;100504.50;;;48.74;11.18
66560;BME280;53413;49.878;8.142;2022-08-11T08:17:19;100502.13;;;49.98;10.40
66560;BME280;53413;49.878;8.142;2022-08-11T08:20:04;100500.09;;;50.26;10.73
66560;BME280;53413;49.878;8.142;2022-08-11T08:22:32;100505.53;;;49.95;10.61
66560;BME280;53413;49.878;8.142;2022-08-11T08:24:59;100505.06;;;49.51;10.68
66560;BME280;53413;49.878;8.142;2022-08-11T08:27:26;100499.25;;;49.05;11.19
66560;BME280;53413;49.878;8.142;2022-08-11T08:29:52;100495.97;;;49.73;11.51
66560;BME280;53413;49.878;8.142;2022-08-11T08:32:40;100492.53;;;50.27;10.43
66560;BME280;53413;49.878;8.142;2022-08-11T08:35:09;100494.00;;;50.24;10.63
66560;BME280;53413;49.878;8.142;2022-08-11T08:37:35;100492.53;;;50.27;10.26
66560;BME280;53413;49.878;8.142;2022-08-11T08:40:01;100504.41;;;49.96;10.51
66560;BME280;53413;49.878;8.142;2022-08-11T08:42:28;100499.97;;;49.25;11.08
66560;BME280;53413;49.878;8.142;2022-08-11T08:45:14;100508.34;;;48.78;11.16
66560;BME280;53413;49.878;8.142;2022-08-11T08:47:43;100497.94;;;48.83;11.20
66560;BME280;53413;49.878;8.142;2022-08-11T08:50:12;100493.19;;;49.31;11.21
66560;BME280;53413;49.878;8.142;2022-08-11T08:52:42;100495.56;;;48.77;11.31
66560;BME280;53413;49.878;8.142;2022-08-11T08:55:23;100489.72;;;48.02;11.62
66560;BME280;53413;49.878;8.142;2022-08-11T08:57:53;100487.53;;;48.18;11.51
66560;BME280;53413;49.878;8.142;2022-08-11T09:00:20;100494.94;;;48.80;11.08
66560;BME280;53413;49.878;8.142;2022-08-11T09:02:47;100496.16;;;49.07;11.07
66560;BME280;53413;49.878;8.142;2022-08-11T09:05:16;100498.03;;;49.25;10.72
66560;BME280;53413;49.878;8.142;2022-08-11T09:07:43;100499.03;;;49.99;10.81
66560;BME280;53413;49.878;8.142;2022-08-11T19:31:57;100124.31;;;21.59;40.99
66560;BME280;53413;49.878;8.142;2022-08-11T19:34:44;100122.25;;;21.83;41.01
66560;BME280;53413;49.878;8.142;2022-08-11T19:37:31;100116.75;;;21.96;40.83
66560;BME280;53413;49.878;8.142;2022-08-11T19:40:16;100119.59;;;22.05;40.19
66560;BME280;53413;49.878;8.142;2022-08-11T19:43:03;100120.19;;;22.08;39.86
66560;BME280;53413;49.878;8.142;2022-08-11T19:45:48;100121.88;;;22.09;39.17
66560;BME280;53413;49.878;8.142;2022-08-11T19:48:34;100120.91;;;22.10;40.03
66560;BME280;53413;49.878;8.142;2022-08-11T19:51:18;100125.84;;;22.15;38.99
66560;BME280;53413;49.878;8.142;2022-08-11T19:54:03;100127.69;;;22.14;40.55
66560;BME280;53413;49.878;8.142;2022-08-11T19:56:49;100125.78;;;22.05;40.69
66560;BME280;53413;49.878;8.142;2022-08-11T19:59:34;100125.19;;;22.02;40.50
66560;BME280;53413;49.878;8.142;2022-08-11T20:02:19;100126.84;;;21.93;40.62
66560;BME280;53413;49.878;8.142;2022-08-11T20:05:04;100123.56;;;21.89;40.68
66560;BME280;53413;49.878;8.142;2022-08-11T20:07:49;100128.59;;;21.82;39.97
66560;BME280;53413;49.878;8.142;2022-08-11T20:10:35;100135.16;;;21.78;39.38
66560;BME280;53413;49.878;8.142;2022-08-11T20:13:21;100134.16;;;21.79;38.79
66560;BME280;53413;49.878;8.142;2022-08-11T20:16:10;100132.88;;;21.74;40.89
66560;BME280;53413;49.878;8.142;2022-08-11T20:18:55;100141.63;;;21.64;41.05
66560;BME280;53413;49.878;8.142;2022-08-11T20:21:41;100148.53;;;21.56;41.25
66560;BME280;53413;49.878;8.142;2022-08-11T20:24:26;100166.72;;;21.50;41.17
66560;BME280;53413;49.878;8.142;2022-08-11T20:27:13;100162.38;;;21.49;40.20
66560;BME280;53413;49.878;8.142;2022-08-11T20:29:58;100156.19;;;21.49;41.33
66560;BME280;53413;49.878;8.142;2022-08-11T20:32:44;100162.88;;;21.43;41.36
66560;BME280;53413;49.878;8.142;2022-08-11T20:38:14;100158.78;;;21.28;41.63
66560;BME280;53413;49.878;8.142;2022-08-11T20:40:59;100161.81;;;21.23;40.68
66560;BME280;53413;49.878;8.142;2022-08-11T20:43:44;100156.00;;;21.18;40.71
66560;BME280;53413;49.878;8.142;2022-08-11T20:46:30;100162.06;;;21.20;41.96
66560;BME280;53413;49.878;8.142;2022-08-11T20:49:15;100168.88;;;21.13;42.54
66560;BME280;53413;49.878;8.142;2022-08-11T20:52:00;100160.16;;;21.11;41.91
66560;BME280;53413;49.878;8.142;2022-08-11T20:54:45;100158.97;;;21.03;42.22
66560;BME280;53413;49.878;8.142;2022-08-11T20:57:31;100158.47;;;20.98;42.38
66560;BME280;53413;49.878;8.142;2022-08-11T21:00:17;100161.50;;;20.94;42.68
66560;BME280;53413;49.878;8.142;2022-08-11T21:03:01;100165.28;;;20.91;41.38
66560;BME280;53413;49.878;8.142;2022-08-11T21:05:46;100168.16;;;20.88;41.45
66560;BME280;53413;49.878;8.142;2022-08-11T21:08:34;100164.91;;;20.84;43.12
66560;BME280;53413;49.878;8.142;2022-08-11T21:11:20;100161.00;;;20.77;43.01
66560;BME280;53413;49.878;8.142;2022-08-11T21:14:10;100164.16;;;20.71;42.77
66560;BME280;53413;49.878;8.142;2022-08-11T21:16:58;100168.13;;;20.65;43.65
66560;BME280;53413;49.878;8.142;2022-08-11T21:19:46;100167.53;;;20.61;44.07
66560;BME280;53413;49.878;8.142;2022-08-11T21:22:38;100170.53;;;20.57;44.31
66560;BME280;53413;49.878;8.142;2022-08-11T21:25:26;100164.88;;;20.50;43.91
66560;BME280;53413;49.878;8.142;2022-08-11T21:28:13;100168.72;;;20.46;44.04
66560;BME280;53413;49.878;8.142;2022-08-11T21:30:58;100169.81;;;20.43;45.12
66560;BME280;53413;49.878;8.142;2022-08-11T21:33:44;100164.72;;;20.40;45.05
66560;BME280;53413;49.878;8.142;2022-08-11T21:36:28;100167.13;;;20.32;44.94
66560;BME280;53413;49.878;8.142;2022-08-11T21:39:16;100164.78;;;20.27;44.34
66560;BME280;53413;49.878;8.142;2022-08-11T21:42:03;100160.69;;;20.23;44.02
66560;BME280;53413;49.878;8.142;2022-08-11T21:44:49;100163.34;;;20.23;43.53
66560;BME280;53413;49.878;8.142;2022-08-11T21:47:33;100163.13;;;20.26;42.87
66560;BME280;53413;49.878;8.142;2022-08-11T21:50:18;100163.34;;;20.23;42.53
66560;BME280;53413;49.878;8.142;2022-08-11T21:53:02;100162.75;;;20.20;42.54
66560;BME280;53413;49.878;8.142;2022-08-11T21:55:46;100167.34;;;20.18;43.21
66560;BME280;53413;49.878;8.142;2022-08-11T21:58:31;100156.91;;;20.14;43.74
66560;BME280;53413;49.878;8.142;2022-08-11T22:01:16;100158.97;;;20.11;43.89
66560;BME280;53413;49.878;8.142;2022-08-11T22:04:02;100168.13;;;20.07;43.59
66560;BME280;53413;49.878;8.142;2022-08-11T22:06:48;100171.75;;;20.06;44.44
66560;BME280;53413;49.878;8.142;2022-08-11T22:09:33;100169.31;;;20.03;43.53
66560;BME280;53413;49.878;8.142;2022-08-11T22:12:17;100164.50;;;20.08;43.48
66560;BME280;53413;49.878;8.142;2022-08-11T22:15:01;100168.53;;;20.13;42.64
66560;BME280;53413;49.878;8.142;2022-08-11T22:17:46;100168.69;;;20.23;43.15
66560;BME280;53413;49.878;8.142;2022-08-11T22:20:31;100173.66;;;20.39;42.27
66560;BME280;53413;49.878;8.142;2022-08-11T22:23:16;100167.75;;;20.58;41.46
66560;BME280;53413;49.878;8.142;2022-08-11T22:26:02;100175.06;;;20.79;41.06
66560;BME280;53413;49.878;8.142;2022-08-11T22:28:46;100174.09;;;21.03;40.49
66560;BME280;53413;49.878;8.142;2022-08-11T22:31:31;100172.59;;;21.33;39.80
66560;BME280;53413;49.878;8.142;2022-08-11T22:34:17;100169.88;;;21.56;39.28
66560;BME280;53413;49.878;8.142;2022-08-11T22:37:01;100170.53;;;21.80;38.83
66560;BME280;53413;49.878;8.142;2022-08-11T22:39:46;100164.78;;;21.96;38.43
66560;BME280;53413;49.878;8.142;2022-08-11T22:42:31;100172.13;;;22.04;38.39
66560;BME280;53413;49.878;8.142;2022-08-11T22:45:16;100176.69;;;22.13;38.39
66560;BME280;53413;49.878;8.142;2022-08-11T22:48:01;100175.00;;;22.12;38.22
66560;BME280;53413;49.878;8.142;2022-08-11T22:50:47;100168.09;;;22.10;38.27
66560;BME280;53413;49.878;8.142;2022-08-11T22:53:32;100165.69;;;22.07;38.34
66560;BME280;53413;49.878;8.142;2022-08-11T22:56:17;100167.19;;;21.99;38.36
66560;BME280;53413;49.878;8.142;2022-08-11T22:59:02;100167.19;;;21.99;38.46
66560;BME280;53413;49.878;8.142;2022-08-11T23:01:47;100173.16;;;21.92;38.65
66560;BME280;53413;49.878;8.142;2022-08-11T23:04:32;100164.94;;;21.83;39.00
66560;BME280;53413;49.878;8.142;2022-08-11T23:07:17;100172.63;;;21.65;40.29
66560;BME280;53413;49.878;8.142;2022-08-11T23:10:02;100174.13;;;21.47;41.08
66560;BME280;53413;49.878;8.142;2022-08-11T23:12:46;100182.03;;;21.26;41.76
66560;BME280;53413;49.878;8.142;2022-08-11T23:15:31;100171.66;;;21.11;41.63
66560;BME280;53413;49.878;8.142;2022-08-11T23:18:15;100183.41;;;20.97;42.32
66560;BME280;53413;49.878;8.142;2022-08-11T23:21:00;100180.16;;;20.82;42.22
66560;BME280;53413;49.878;8.142;2022-08-11T23:23:44;100178.06;;;20.63;42.54
66560;BME280;53413;49.878;8.142;2022-08-11T23:26:29;100175.50;;;20.50;43.50
66560;BME280;53413;49.878;8.142;2022-08-11T23:29:14;100171.13;;;20.38;43.87
66560;BME280;53413;49.878;8.142;2022-08-11T23:32:01;100167.59;;;20.26;44.06
66560;BME280;53413;49.878;8.142;2022-08-11T23:34:50;100176.53;;;20.25;43.54
66560;BME280;53413;49.878;8.142;2022-08-11T23:37:35;100169.72;;;20.21;43.66
66560;BME280;53413;49.878;8.142;2022-08-11T23:40:19;100175.66;;;20.13;43.53
66560;BME280;53413;49.878;8.142;2022-08-11T23:43:03;100176.13;;;20.07;43.36
66560;BME280;53413;49.878;8.142;2022-08-11T23:45:48;100166.66;;;20.03;43.95
66560;BME280;53413;49.878;8.142;2022-08-11T23:48:32;100173.94;;;20.01;43.05
66560;BME280;53413;49.878;8.142;2022-08-11T23:51:20;100172.63;;;20.06;42.83
66560;BME280;53413;49.878;8.142;2022-08-11T23:54:04;100157.28;;;20.10;42.83
66560;BME280;53413;49.878;8.142;2022-08-11T23:56:48;100157.66;;;20.17;42.39
66560;BME280;53413;49.878;8.142;2022-08-11T23:59:33;100151.16;;;20.32;41.92
